createdAt,value
2018-07-30T00:02:07.318Z,21.53
2018-07-30T00:04:34.630Z,21.53
2018-07-30T00:07:01.939Z,21.50
2018-07-30T00:09:29.223Z,21.44
2018-07-30T00:11:56.429Z,21.47
2018-07-30T00:14:23.677Z,21.37
2018-07-30T00:16:50.909Z,21.32
2018-07-30T00:19:18.195Z,21.32
2018-07-30T00:21:45.460Z,21.31
2018-07-30T00:24:12.682Z,21.29
2018-07-30T00:26:39.990Z,21.30
2018-07-30T00:29:07.171Z,21.28
2018-07-30T00:31:34.452Z,21.24
2018-07-30T00:34:01.878Z,21.21
2018-07-30T00:36:29.061Z,21.22
2018-07-30T00:38:56.330Z,21.21
2018-07-30T00:41:23.634Z,21.12
2018-07-30T00:43:50.898Z,21.14
2018-07-30T00:46:18.179Z,21.16
2018-07-30T00:48:45.315Z,21.11
2018-07-30T00:51:12.611Z,21.05
2018-07-30T00:53:39.825Z,21.05
2018-07-30T00:56:07.040Z,21.07
2018-07-30T00:58:34.205Z,21.01
2018-07-30T01:01:01.463Z,20.94
2018-07-30T01:03:28.644Z,20.93
2018-07-30T01:05:55.938Z,20.86
2018-07-30T01:08:23.188Z,20.89
2018-07-30T01:10:50.436Z,20.88
2018-07-30T01:13:17.661Z,20.88
2018-07-30T01:15:44.954Z,20.82
2018-07-30T01:18:12.161Z,20.71
2018-07-30T01:20:39.528Z,20.67
2018-07-30T01:23:07.169Z,20.70
2018-07-30T01:25:34.449Z,20.66
2018-07-30T01:28:01.779Z,20.67
2018-07-30T01:30:29.282Z,20.63
2018-07-30T01:32:56.515Z,20.59
2018-07-30T01:35:23.721Z,20.58
2018-07-30T01:37:50.905Z,20.63
2018-07-30T01:40:18.187Z,20.58
2018-07-30T01:42:45.498Z,20.58
2018-07-30T01:45:12.768Z,20.52
2018-07-30T01:47:39.996Z,20.49
2018-07-30T01:50:07.272Z,20.45
2018-07-30T01:52:34.578Z,20.47
2018-07-30T01:55:01.906Z,20.45
2018-07-30T01:57:29.146Z,20.39
2018-07-30T01:59:56.355Z,20.38
2018-07-30T02:02:23.624Z,20.34
2018-07-30T02:04:50.893Z,20.34
2018-07-30T02:07:18.153Z,20.40
2018-07-30T02:09:45.317Z,20.28
2018-07-30T02:12:12.660Z,20.14
2018-07-30T02:14:39.913Z,20.14
2018-07-30T02:17:07.128Z,19.97
2018-07-30T02:19:34.564Z,19.95
2018-07-30T02:22:01.908Z,19.92
2018-07-30T02:24:29.172Z,19.93
2018-07-30T02:26:56.413Z,19.99
2018-07-30T02:29:23.636Z,19.94
2018-07-30T02:31:51.001Z,19.90
2018-07-30T02:34:18.251Z,19.88
2018-07-30T02:36:45.739Z,19.91
2018-07-30T02:39:13.828Z,19.90
2018-07-30T02:41:41.444Z,19.92
2018-07-30T02:44:08.643Z,19.89
2018-07-30T02:46:35.984Z,19.89
2018-07-30T02:49:03.280Z,19.83
2018-07-30T02:51:31.717Z,19.85
2018-07-30T02:53:59.095Z,19.89
2018-07-30T02:56:26.337Z,19.87
2018-07-30T02:58:53.638Z,19.83
2018-07-30T03:01:20.875Z,19.79
2018-07-30T03:05:17.583Z,19.76
2018-07-30T03:07:44.922Z,19.71
2018-07-30T03:10:12.209Z,19.67
2018-07-30T03:12:39.413Z,19.73
2018-07-30T03:15:06.682Z,19.76
2018-07-30T03:17:33.878Z,19.76
2018-07-30T03:20:01.096Z,19.69
2018-07-30T03:22:28.294Z,19.64
2018-07-30T03:24:55.591Z,19.53
2018-07-30T03:27:22.913Z,19.52
2018-07-30T03:29:50.158Z,19.49
2018-07-30T03:32:17.598Z,19.46
2018-07-30T03:34:44.980Z,19.43
2018-07-30T03:37:12.242Z,19.40
2018-07-30T03:39:39.507Z,19.44
2018-07-30T03:42:06.847Z,19.43
2018-07-30T03:44:34.115Z,19.47
2018-07-30T03:47:01.302Z,19.43
2018-07-30T03:49:28.532Z,19.45
2018-07-30T03:51:55.721Z,19.46
2018-07-30T03:54:23.001Z,19.42
2018-07-30T03:56:50.243Z,19.46
2018-07-30T03:59:17.501Z,19.46
2018-07-30T04:01:44.811Z,19.46
2018-07-30T04:04:11.996Z,19.44
2018-07-30T04:06:39.187Z,19.30
2018-07-30T04:09:06.494Z,19.27
2018-07-30T04:11:33.712Z,19.36
2018-07-30T04:14:00.965Z,19.24
2018-07-30T04:16:28.079Z,19.29
2018-07-30T04:18:55.341Z,19.27
2018-07-30T04:21:22.571Z,19.33
2018-07-30T04:23:49.773Z,19.36
2018-07-30T04:26:17.034Z,19.44
2018-07-30T04:28:44.241Z,19.40
2018-07-30T04:31:11.506Z,19.39
2018-07-30T04:33:38.708Z,19.38
2018-07-30T04:36:06.038Z,19.43
2018-07-30T04:38:33.246Z,19.49
2018-07-30T04:41:00.492Z,19.58
2018-07-30T04:43:27.721Z,19.64
2018-07-30T04:45:54.942Z,19.67
2018-07-30T04:48:22.277Z,19.72
2018-07-30T04:50:49.556Z,19.82
2018-07-30T04:53:16.785Z,19.83
2018-07-30T04:55:43.987Z,19.88
2018-07-30T04:58:11.259Z,19.86
2018-07-30T05:00:38.521Z,19.89
2018-07-30T05:03:06.565Z,19.95
2018-07-30T05:05:34.815Z,19.93
2018-07-30T05:08:02.076Z,20.03
2018-07-30T05:10:29.342Z,20.06
2018-07-30T05:12:56.457Z,20.14
2018-07-30T05:15:23.765Z,20.17
2018-07-30T05:17:51.131Z,20.19
2018-07-30T05:20:18.337Z,20.28
2018-07-30T05:22:45.565Z,20.26
2018-07-30T05:25:12.733Z,20.11
2018-07-30T05:27:39.947Z,20.16
2018-07-30T05:30:07.142Z,20.13
2018-07-30T05:32:34.352Z,20.05
2018-07-30T05:35:01.551Z,20.00
2018-07-30T05:37:28.792Z,20.17
2018-07-30T05:39:56.011Z,20.29
2018-07-30T05:42:23.245Z,20.48
2018-07-30T05:44:50.496Z,20.75
2018-07-30T05:47:17.656Z,20.97
2018-07-30T05:49:44.861Z,21.20
2018-07-30T05:52:12.110Z,21.35
2018-07-30T05:54:39.401Z,21.47
2018-07-30T05:57:06.622Z,21.61
2018-07-30T05:59:33.995Z,21.80
2018-07-30T06:02:01.240Z,21.90
2018-07-30T06:04:28.346Z,22.10
2018-07-30T06:06:55.521Z,22.25
2018-07-30T06:09:22.746Z,22.35
2018-07-30T06:11:49.943Z,22.46
2018-07-30T06:14:17.184Z,22.49
2018-07-30T06:16:44.420Z,22.58
2018-07-30T06:19:11.623Z,22.63
2018-07-30T06:21:38.865Z,22.69
2018-07-30T06:24:06.467Z,22.84
2018-07-30T06:26:33.766Z,22.93
2018-07-30T06:29:01.093Z,23.16
2018-07-30T06:31:28.391Z,23.42
2018-07-30T06:33:55.612Z,23.69
2018-07-30T06:36:22.792Z,23.89
2018-07-30T06:38:50.892Z,24.04
2018-07-30T06:41:18.087Z,24.23
2018-07-30T06:43:45.399Z,24.42
2018-07-30T06:46:12.709Z,24.68
2018-07-30T06:48:39.977Z,24.91
2018-07-30T06:51:07.450Z,25.28
2018-07-30T06:53:34.711Z,25.55
2018-07-30T06:56:01.904Z,25.82
2018-07-30T06:58:29.124Z,26.02
2018-07-30T07:00:56.370Z,26.13
2018-07-30T07:03:23.717Z,26.28
2018-07-30T07:05:51.006Z,26.43
2018-07-30T07:08:18.233Z,26.48
2018-07-30T07:10:45.489Z,26.69
2018-07-30T07:13:12.719Z,26.83
2018-07-30T07:15:39.911Z,26.93
2018-07-30T07:18:07.090Z,26.99
2018-07-30T07:20:34.351Z,27.12
2018-07-30T07:23:01.567Z,27.27
2018-07-30T07:25:28.925Z,27.40
2018-07-30T07:27:56.171Z,27.53
2018-07-30T07:30:23.443Z,27.55
2018-07-30T07:32:50.695Z,27.63
2018-07-30T07:35:17.909Z,27.82
2018-07-30T07:37:45.124Z,27.89
2018-07-30T07:40:12.409Z,28.08
2018-07-30T07:42:39.561Z,28.23
2018-07-30T07:45:07.496Z,28.40
2018-07-30T07:47:34.809Z,28.59
2018-07-30T07:50:02.112Z,28.68
2018-07-30T07:52:29.367Z,28.77
2018-07-30T07:54:56.761Z,28.82
2018-07-30T07:57:24.488Z,29.01
2018-07-30T07:59:51.801Z,29.23
2018-07-30T08:02:19.007Z,29.36
2018-07-30T08:04:46.288Z,29.36
2018-07-30T08:07:13.643Z,29.39
2018-07-30T08:09:40.914Z,29.71
2018-07-30T08:12:08.249Z,29.92
2018-07-30T08:14:35.689Z,30.10
2018-07-30T08:17:02.991Z,30.19
2018-07-30T08:19:30.339Z,30.38
2018-07-30T08:21:57.628Z,30.70
2018-07-30T08:24:25.037Z,30.90
2018-07-30T08:26:52.325Z,30.78
2018-07-30T08:29:19.562Z,30.60
2018-07-30T08:31:47.088Z,30.44
2018-07-30T08:34:14.326Z,30.39
2018-07-30T08:36:41.522Z,30.39
2018-07-30T08:39:10.002Z,30.28
2018-07-30T08:41:37.337Z,30.51
2018-07-30T08:44:04.873Z,30.73
2018-07-30T08:46:32.149Z,30.74
2018-07-30T08:48:59.402Z,30.65
2018-07-30T08:51:26.618Z,30.48
2018-07-30T08:53:53.854Z,30.72
2018-07-30T08:56:21.121Z,31.21
2018-07-30T08:58:48.295Z,31.19
2018-07-30T09:01:15.562Z,30.75
2018-07-30T09:03:42.736Z,30.36
2018-07-30T09:06:09.970Z,29.88
2018-07-30T09:08:37.297Z,30.09
2018-07-30T09:11:04.533Z,30.27
2018-07-30T09:13:31.932Z,30.31
2018-07-30T09:15:59.138Z,30.44
2018-07-30T09:18:26.467Z,30.33
2018-07-30T09:20:53.846Z,30.54
2018-07-30T09:23:21.058Z,30.91
2018-07-30T09:25:48.408Z,30.93
2018-07-30T09:28:15.565Z,30.81
2018-07-30T09:30:42.889Z,30.82
2018-07-30T09:33:10.100Z,30.85
2018-07-30T09:35:37.340Z,30.74
2018-07-30T09:38:04.686Z,30.65
2018-07-30T09:40:31.977Z,30.40
2018-07-30T09:42:59.256Z,30.31
2018-07-30T09:45:26.598Z,30.30
2018-07-30T09:47:53.894Z,30.38
2018-07-30T09:50:21.153Z,30.36
2018-07-30T09:52:48.462Z,30.63
2018-07-30T09:55:15.717Z,30.87
2018-07-30T09:57:43.298Z,31.29
2018-07-30T10:00:10.588Z,31.49
2018-07-30T10:02:38.046Z,32.06
2018-07-30T10:05:05.309Z,32.61
2018-07-30T10:07:32.617Z,32.98
2018-07-30T10:09:59.901Z,33.30
2018-07-30T10:12:27.145Z,33.03
2018-07-30T10:14:54.521Z,33.07
2018-07-30T10:17:21.745Z,33.13
2018-07-30T10:19:49.064Z,32.17
2018-07-30T10:22:16.275Z,32.12
2018-07-30T10:24:43.507Z,32.39
2018-07-30T10:27:10.716Z,32.46
2018-07-30T10:29:38.031Z,32.45
2018-07-30T10:32:05.311Z,32.41
2018-07-30T10:34:32.548Z,32.49
2018-07-30T10:36:59.848Z,32.68
2018-07-30T10:39:27.121Z,32.88
2018-07-30T10:41:54.520Z,33.48
2018-07-30T10:44:21.852Z,34.15
2018-07-30T10:46:49.003Z,34.40
2018-07-30T10:49:16.279Z,34.33
2018-07-30T10:51:43.548Z,33.51
2018-07-30T10:54:10.794Z,33.05
2018-07-30T10:56:38.127Z,32.54
2018-07-30T10:59:05.515Z,32.11
2018-07-30T11:01:32.789Z,31.66
2018-07-30T11:04:00.032Z,31.39
2018-07-30T11:06:27.240Z,31.66
2018-07-30T11:08:54.556Z,31.53
2018-07-30T11:11:21.801Z,31.64
2018-07-30T11:13:49.055Z,31.62
2018-07-30T11:16:16.283Z,31.90
2018-07-30T11:18:43.521Z,32.20
2018-07-30T11:21:10.739Z,32.41
2018-07-30T11:23:38.007Z,33.19
2018-07-30T11:26:05.369Z,33.60
2018-07-30T11:28:32.607Z,33.61
2018-07-30T11:30:59.846Z,34.15
2018-07-30T11:33:27.155Z,34.27
2018-07-30T11:35:54.408Z,33.85
2018-07-30T11:38:21.732Z,34.04
2018-07-30T11:40:48.966Z,34.57
2018-07-30T11:43:16.244Z,35.20
2018-07-30T11:45:43.439Z,35.06
2018-07-30T11:48:10.748Z,34.91
2018-07-30T11:50:38.005Z,34.79
2018-07-30T11:53:05.474Z,34.84
2018-07-30T11:55:32.775Z,35.33
2018-07-30T11:58:00.160Z,35.76
2018-07-30T12:00:27.530Z,36.27
2018-07-30T12:02:54.792Z,36.74
2018-07-30T12:05:22.016Z,36.97
2018-07-30T12:07:49.254Z,37.41
2018-07-30T12:10:16.470Z,37.68
2018-07-30T12:12:43.700Z,36.71
2018-07-30T12:15:11.002Z,36.36
2018-07-30T12:17:38.239Z,36.66
2018-07-30T12:20:05.549Z,37.12
2018-07-30T12:22:32.764Z,37.76
2018-07-30T12:25:00.080Z,38.27
2018-07-30T12:27:27.410Z,36.49
2018-07-30T12:29:54.699Z,36.61
2018-07-30T12:32:21.987Z,36.73
2018-07-30T12:34:49.198Z,37.33
2018-07-30T12:37:16.491Z,37.92
2018-07-30T12:39:43.716Z,38.35
2018-07-30T12:42:10.960Z,38.21
2018-07-30T12:44:38.259Z,37.93
2018-07-30T12:47:05.775Z,37.23
2018-07-30T12:49:33.002Z,36.68
2018-07-30T12:52:00.270Z,36.53
2018-07-30T12:54:27.517Z,36.50
2018-07-30T12:56:54.733Z,36.50
2018-07-30T12:59:21.968Z,36.63
2018-07-30T13:01:49.126Z,36.85
2018-07-30T13:04:16.352Z,37.35
2018-07-30T13:06:43.878Z,37.31
2018-07-30T13:09:11.206Z,37.64
2018-07-30T13:11:38.506Z,38.18
2018-07-30T13:14:05.787Z,38.32
2018-07-30T13:16:33.027Z,38.45
2018-07-30T13:19:00.271Z,38.18
2018-07-30T13:21:27.591Z,37.16
2018-07-30T13:23:54.819Z,36.36
2018-07-30T13:26:22.070Z,36.49
2018-07-30T13:28:49.408Z,37.27
2018-07-30T13:31:16.638Z,37.67
2018-07-30T13:33:43.835Z,38.21
2018-07-30T13:36:11.092Z,38.21
2018-07-30T13:38:38.459Z,38.57
2018-07-30T13:41:05.685Z,38.86
2018-07-30T13:43:36.882Z,39.35
2018-07-30T13:46:04.198Z,39.23
2018-07-30T13:51:04.543Z,39.68
2018-07-30T13:53:31.863Z,39.52
2018-07-30T13:55:59.131Z,39.10
2018-07-30T13:58:29.911Z,37.60
2018-07-30T14:00:57.144Z,36.98
2018-07-30T14:03:27.705Z,36.35
2018-07-30T14:05:55.040Z,35.91
2018-07-30T14:08:22.344Z,36.15
2018-07-30T14:10:49.685Z,36.96
2018-07-30T14:13:17.078Z,36.25
2018-07-30T14:15:44.322Z,35.56
2018-07-30T14:18:11.712Z,35.65
2018-07-30T14:20:38.992Z,36.27
2018-07-30T14:23:06.588Z,37.42
2018-07-30T14:25:33.929Z,37.99
2018-07-30T14:28:01.099Z,38.50
2018-07-30T14:30:28.387Z,38.10
2018-07-30T14:32:55.664Z,38.25
2018-07-30T14:35:23.097Z,38.08
2018-07-30T14:37:50.286Z,37.81
2018-07-30T14:40:17.599Z,36.98
2018-07-30T14:42:44.818Z,37.37
2018-07-30T14:45:12.015Z,37.37
2018-07-30T14:47:39.295Z,36.64
2018-07-30T14:50:07.553Z,36.45
2018-07-30T14:52:34.880Z,37.39
2018-07-30T14:55:02.248Z,37.92
2018-07-30T14:57:29.501Z,37.85
2018-07-30T14:59:56.858Z,36.75
2018-07-30T15:02:24.107Z,36.74
2018-07-30T15:04:51.430Z,36.80
2018-07-30T15:07:18.716Z,37.51
2018-07-30T15:09:45.945Z,37.63
2018-07-30T15:12:13.289Z,37.65
2018-07-30T15:14:40.515Z,37.92
2018-07-30T15:17:07.795Z,37.46
2018-07-30T15:19:35.197Z,36.50
2018-07-30T15:22:02.378Z,36.53
2018-07-30T15:24:29.687Z,37.24
2018-07-30T15:26:56.918Z,37.53
2018-07-30T15:29:24.316Z,37.97
2018-07-30T15:31:51.545Z,37.62
2018-07-30T15:34:18.825Z,37.27
2018-07-30T15:36:46.090Z,36.90
2018-07-30T15:39:13.381Z,36.64
2018-07-30T15:41:40.618Z,36.71
2018-07-30T15:44:08.013Z,36.48
2018-07-30T15:46:35.621Z,36.49
2018-07-30T15:49:02.877Z,36.61
2018-07-30T15:51:30.157Z,36.66
2018-07-30T15:53:57.392Z,36.67
2018-07-30T15:56:24.618Z,36.39
2018-07-30T15:58:51.902Z,36.43
2018-07-30T16:01:19.173Z,36.68
2018-07-30T16:03:46.430Z,36.77
2018-07-30T16:06:13.663Z,36.91
2018-07-30T16:08:40.927Z,37.04
2018-07-30T16:11:08.263Z,37.10
2018-07-30T16:13:35.531Z,37.20
2018-07-30T16:16:02.864Z,37.28
2018-07-30T16:18:30.168Z,37.29
2018-07-30T16:20:57.536Z,37.35
2018-07-30T16:23:24.842Z,37.18
2018-07-30T16:25:52.100Z,36.96
2018-07-30T16:28:19.328Z,36.94
2018-07-30T16:30:46.660Z,36.66
2018-07-30T16:33:13.863Z,36.54
2018-07-30T16:35:41.148Z,36.51
2018-07-30T16:38:08.488Z,36.46
2018-07-30T16:40:35.798Z,36.28
2018-07-30T16:43:03.088Z,36.23
2018-07-30T16:45:30.340Z,36.05
2018-07-30T16:47:57.548Z,35.83
2018-07-30T16:50:24.830Z,35.54
2018-07-30T16:52:52.087Z,35.42
2018-07-30T16:55:19.395Z,35.33
2018-07-30T16:57:46.643Z,35.22
2018-07-30T17:00:13.945Z,35.16
2018-07-30T17:02:41.237Z,35.00
2018-07-30T17:05:08.895Z,34.92
2018-07-30T17:07:36.329Z,34.80
2018-07-30T17:10:03.959Z,34.80
2018-07-30T17:12:31.320Z,34.81
2018-07-30T17:14:58.610Z,34.80
2018-07-30T17:17:25.785Z,34.68
2018-07-30T17:19:53.033Z,34.66
2018-07-30T17:22:20.302Z,34.65
2018-07-30T17:24:47.503Z,34.49
2018-07-30T17:27:14.767Z,34.18
2018-07-30T17:29:42.100Z,34.01
2018-07-30T17:32:09.315Z,33.91
2018-07-30T17:34:36.575Z,33.84
2018-07-30T17:37:04.213Z,33.81
2018-07-30T17:39:31.419Z,33.72
2018-07-30T17:41:58.719Z,33.62
2018-07-30T17:44:25.898Z,33.40
2018-07-30T17:46:53.173Z,33.16
2018-07-30T17:49:20.332Z,32.93
2018-07-30T17:51:47.550Z,33.02
2018-07-30T17:54:14.805Z,32.96
2018-07-30T17:56:42.087Z,32.89
2018-07-30T17:59:09.316Z,32.86
2018-07-30T18:01:36.471Z,32.60
2018-07-30T18:04:03.791Z,32.32
2018-07-30T18:06:30.966Z,32.27
2018-07-30T18:08:58.184Z,32.11
2018-07-30T18:11:25.365Z,32.00
2018-07-30T18:13:52.691Z,31.90
2018-07-30T18:16:19.983Z,31.85
2018-07-30T18:18:47.275Z,31.68
2018-07-30T18:21:14.564Z,31.64
2018-07-30T18:23:41.810Z,31.48
2018-07-30T18:26:09.117Z,31.41
2018-07-30T18:28:36.411Z,31.35
2018-07-30T18:31:03.730Z,31.24
2018-07-30T18:33:30.995Z,31.26
2018-07-30T18:35:58.228Z,31.18
2018-07-30T18:38:25.403Z,31.10
2018-07-30T18:40:52.871Z,31.02
2018-07-30T18:43:20.140Z,30.80
2018-07-30T18:45:47.442Z,30.73
2018-07-30T18:48:14.642Z,30.70
2018-07-30T18:50:41.868Z,30.70
2018-07-30T18:53:09.196Z,30.66
2018-07-30T18:55:36.401Z,30.64
2018-07-30T18:58:03.752Z,30.55
2018-07-30T19:00:31.019Z,30.50
2018-07-30T19:02:58.275Z,30.45
2018-07-30T19:05:25.536Z,30.34
2018-07-30T19:07:52.819Z,30.25
2018-07-30T19:10:20.052Z,30.23
2018-07-30T19:12:47.291Z,30.17
2018-07-30T19:15:14.531Z,30.07
2018-07-30T19:17:41.722Z,29.96
2018-07-30T19:20:09.026Z,29.88
2018-07-30T19:22:36.341Z,29.78
2018-07-30T19:25:03.677Z,29.64
2018-07-30T19:27:30.936Z,29.38
2018-07-30T19:29:58.195Z,29.47
2018-07-30T19:32:25.376Z,29.42
2018-07-30T19:34:52.707Z,29.36
2018-07-30T19:37:20.046Z,29.35
2018-07-30T19:39:47.300Z,29.13
2018-07-30T19:42:14.649Z,29.02
2018-07-30T19:44:42.049Z,28.93
2018-07-30T19:47:09.288Z,28.79
2018-07-30T19:49:36.572Z,28.70
2018-07-30T19:52:03.838Z,28.63
2018-07-30T19:54:31.090Z,28.56
2018-07-30T19:56:58.382Z,28.52
2018-07-30T19:59:25.644Z,28.42
2018-07-30T20:01:52.910Z,28.37
2018-07-30T20:04:20.146Z,28.37
2018-07-30T20:06:47.608Z,28.33
2018-07-30T20:09:14.855Z,28.19
2018-07-30T20:11:42.081Z,28.10
2018-07-30T20:14:09.356Z,28.10
2018-07-30T20:16:36.679Z,27.96
2018-07-30T20:19:04.104Z,27.83
2018-07-30T20:21:31.323Z,27.72
2018-07-30T20:23:58.666Z,27.63
2018-07-30T20:26:25.902Z,27.50
2018-07-30T20:28:53.116Z,27.49
2018-07-30T20:31:23.428Z,27.44
2018-07-30T20:33:50.804Z,27.36
2018-07-30T20:36:18.022Z,27.35
2018-07-30T20:38:45.282Z,27.31
2018-07-30T20:41:12.530Z,27.24
2018-07-30T20:43:39.879Z,27.21
2018-07-30T20:46:07.156Z,27.22
2018-07-30T20:48:34.432Z,27.15
2018-07-30T20:51:01.746Z,27.07
2018-07-30T20:53:29.013Z,27.00
2018-07-30T20:55:56.349Z,26.99
2018-07-30T20:58:23.603Z,26.94
2018-07-30T21:00:50.970Z,26.92
2018-07-30T21:03:18.300Z,26.90
2018-07-30T21:05:45.555Z,26.74
2018-07-30T21:08:14.531Z,26.66
2018-07-30T21:10:42.998Z,26.56
2018-07-30T21:13:10.250Z,26.43
2018-07-30T21:15:37.550Z,26.34
2018-07-30T21:18:04.943Z,26.30
2018-07-30T21:20:32.384Z,26.23
2018-07-30T21:22:59.659Z,26.14
2018-07-30T21:25:26.912Z,26.07
2018-07-30T21:27:54.164Z,26.07
2018-07-30T21:30:21.522Z,26.05
2018-07-30T21:32:48.646Z,26.03
2018-07-30T21:35:16.480Z,26.01
2018-07-30T21:37:43.779Z,25.96
2018-07-30T21:40:11.116Z,25.86
2018-07-30T21:42:38.481Z,25.75
2018-07-30T21:45:05.808Z,25.69
2018-07-30T21:47:33.100Z,25.72
2018-07-30T21:50:00.415Z,25.65
2018-07-30T21:52:27.629Z,25.59
2018-07-30T21:54:54.867Z,25.49
2018-07-30T21:57:22.205Z,25.41
2018-07-30T21:59:49.429Z,25.34
2018-07-30T22:02:16.670Z,25.29
2018-07-30T22:04:44.001Z,25.28
2018-07-30T22:07:11.298Z,25.23
2018-07-30T22:09:38.630Z,25.14
2018-07-30T22:12:06.173Z,25.01
2018-07-30T22:14:33.497Z,25.17
2018-07-30T22:17:00.832Z,25.06
2018-07-30T22:19:28.035Z,25.04
2018-07-30T22:21:55.299Z,25.00
2018-07-30T22:24:22.571Z,24.96
2018-07-30T22:26:50.031Z,24.88
2018-07-30T22:29:17.309Z,24.88
2018-07-30T22:31:44.535Z,24.87
2018-07-30T22:34:11.831Z,24.77
2018-07-30T22:36:39.113Z,24.64
2018-07-30T22:39:08.713Z,24.55
2018-07-30T22:41:36.268Z,24.48
2018-07-30T22:44:03.577Z,24.47
2018-07-30T22:46:30.896Z,24.50
2018-07-30T22:48:58.157Z,24.44
2018-07-30T22:51:25.470Z,24.42
2018-07-30T22:53:52.765Z,24.38
2018-07-30T22:56:20.062Z,24.37
2018-07-30T22:58:47.321Z,24.33
2018-07-30T23:01:14.587Z,24.27
2018-07-30T23:03:41.851Z,24.22
2018-07-30T23:06:09.082Z,24.14
2018-07-30T23:08:36.239Z,23.95
2018-07-30T23:11:03.641Z,24.00
2018-07-30T23:13:30.934Z,24.02
2018-07-30T23:15:58.209Z,23.98
2018-07-30T23:18:25.432Z,23.92
2018-07-30T23:20:52.694Z,23.91
2018-07-30T23:23:20.058Z,23.76
2018-07-30T23:25:47.287Z,23.73
2018-07-30T23:28:14.569Z,23.69
2018-07-30T23:30:41.822Z,23.57
2018-07-30T23:33:09.034Z,23.55
2018-07-30T23:35:36.241Z,23.55
2018-07-30T23:38:03.516Z,23.48
2018-07-30T23:40:30.766Z,23.49
2018-07-30T23:42:58.041Z,23.51
2018-07-30T23:45:25.258Z,23.45
2018-07-30T23:47:52.476Z,23.43
2018-07-30T23:50:19.749Z,23.39
2018-07-30T23:52:47.044Z,23.28
2018-07-30T23:55:14.364Z,23.30
2018-07-30T23:57:41.697Z,23.29
